createdAt,value
2022-08-25T00:00:23.207Z,7.03
2022-08-25T00:01:31.776Z,7.25
2022-08-25T00:02:34.302Z,6.63
2022-08-25T00:03:39.602Z,6.82
2022-08-25T00:04:43.448Z,6.78
2022-08-25T00:05:46.130Z,6.70
2022-08-25T00:06:49.160Z,6.53
2022-08-25T00:07:50.643Z,6.63
2022-08-25T00:08:52.581Z,6.85
2022-08-25T00:09:54.034Z,7.50
2022-08-25T00:11:03.127Z,6.93
2022-08-25T00:12:06.400Z,8.00
2022-08-25T00:13:08.863Z,7.38
2022-08-25T00:14:14.982Z,6.75
2022-08-25T00:15:16.518Z,7.20
2022-08-25T00:16:20.447Z,6.97
2022-08-25T00:17:22.069Z,6.65
2022-08-25T00:18:24.031Z,6.70
2022-08-25T00:19:29.774Z,6.68
2022-08-25T00:20:32.324Z,6.50
2022-08-25T00:21:33.867Z,7.15
2022-08-25T00:22:35.718Z,6.43
2022-08-25T00:23:37.670Z,6.90
2022-08-25T00:24:39.437Z,7.03
2022-08-25T00:25:41.313Z,7.72
2022-08-25T00:26:45.479Z,7.10
2022-08-25T00:27:48.145Z,6.53
2022-08-25T00:28:50.217Z,6.68
2022-08-25T00:29:55.630Z,7.10
2022-08-25T00:30:58.879Z,7.13
2022-08-25T00:32:01.077Z,6.93
2022-08-25T00:33:04.989Z,6.97
2022-08-25T00:34:09.976Z,7.25
2022-08-25T00:35:12.135Z,6.93
2022-08-25T00:36:14.820Z,6.85
2022-08-25T00:37:16.404Z,7.60
2022-08-25T00:38:17.893Z,6.68
2022-08-25T00:39:21.323Z,7.03
2022-08-25T00:40:26.259Z,6.38
2022-08-25T00:41:28.093Z,7.15
2022-08-25T00:42:30.426Z,6.95
2022-08-25T00:43:40.705Z,6.78
2022-08-25T00:44:44.021Z,7.13
2022-08-25T00:45:46.086Z,7.28
2022-08-25T00:46:51.352Z,8.05
2022-08-25T00:47:53.680Z,6.95
2022-08-25T00:49:02.223Z,7.18
2022-08-25T00:50:06.306Z,7.55
2022-08-25T00:51:14.161Z,7.13
2022-08-25T00:52:29.564Z,7.03
2022-08-25T00:53:31.319Z,6.68
2022-08-25T00:54:45.705Z,7.47
2022-08-25T00:55:47.709Z,7.30
2022-08-25T00:56:51.750Z,6.68
2022-08-25T00:57:58.538Z,7.15
2022-08-25T00:59:01.977Z,7.18
2022-08-25T01:00:21.574Z,7.10
2022-08-25T01:01:23.139Z,7.50
2022-08-25T01:02:25.049Z,7.05
2022-08-25T01:03:33.141Z,7.88
2022-08-25T01:04:34.999Z,7.18
2022-08-25T01:05:37.625Z,7.85
2022-08-25T01:06:44.467Z,7.70
2022-08-25T01:07:46.758Z,7.53
2022-08-25T01:08:48.362Z,8.25
2022-08-25T01:09:52.537Z,7.55
2022-08-25T01:10:57.364Z,6.70
2022-08-25T01:11:59.972Z,7.60
2022-08-25T01:13:26.878Z,7.40
2022-08-25T01:14:31.546Z,6.72
2022-08-25T01:15:34.660Z,8.13
2022-08-25T01:16:40.932Z,7.40
2022-08-25T01:17:49.526Z,7.60
2022-08-25T01:18:56.397Z,7.55
2022-08-25T01:19:57.913Z,8.05
2022-08-25T01:21:00.079Z,7.18
2022-08-25T01:22:01.816Z,6.97
2022-08-25T01:23:04.069Z,7.72
2022-08-25T01:24:06.760Z,7.25
2022-08-25T01:25:23.402Z,7.07
2022-08-25T01:26:30.680Z,6.53
2022-08-25T01:27:32.565Z,7.38
2022-08-25T01:28:35.938Z,6.97
2022-08-25T01:29:38.496Z,7.35
2022-08-25T01:30:41.072Z,7.03
2022-08-25T01:31:42.706Z,7.53
2022-08-25T01:32:44.228Z,7.32
2022-08-25T01:33:46.130Z,7.78
2022-08-25T01:34:47.592Z,7.82
2022-08-25T01:35:50.192Z,7.47
2022-08-25T01:36:52.723Z,7.20
2022-08-25T01:37:54.155Z,7.78
2022-08-25T01:38:56.528Z,7.15
2022-08-25T01:39:58.040Z,7.45
2022-08-25T01:40:59.567Z,7.15
2022-08-25T01:42:09.410Z,7.43
2022-08-25T01:43:11.343Z,7.28
2022-08-25T01:44:16.104Z,6.93
2022-08-25T01:45:18.807Z,7.00
2022-08-25T01:46:20.464Z,7.10
2022-08-25T01:47:22.114Z,7.10
2022-08-25T01:48:24.083Z,6.80
2022-08-25T01:49:25.604Z,7.80
2022-08-25T01:50:27.865Z,7.60
2022-08-25T01:51:34.116Z,6.97
2022-08-25T01:52:49.870Z,6.63
2022-08-25T01:53:52.078Z,7.03
2022-08-25T01:54:53.642Z,7.07
2022-08-25T01:56:05.667Z,8.27
2022-08-25T01:57:11.456Z,7.15
2022-08-25T01:58:12.951Z,7.13
2022-08-25T01:59:24.068Z,7.28
2022-08-25T02:00:25.954Z,7.82
2022-08-25T02:01:28.182Z,7.18
2022-08-25T02:02:29.774Z,7.40
2022-08-25T02:03:38.728Z,7.30
2022-08-25T02:04:44.338Z,8.10
2022-08-25T02:05:48.257Z,7.28
2022-08-25T02:06:50.773Z,7.18
2022-08-25T02:07:52.246Z,7.20
2022-08-25T02:08:56.885Z,7.07
2022-08-25T02:09:58.984Z,7.22
2022-08-25T02:11:05.535Z,7.60
2022-08-25T02:12:09.181Z,8.30
2022-08-25T02:13:11.116Z,7.63
2022-08-25T02:14:14.488Z,6.70
2022-08-25T02:15:16.405Z,7.68
2022-08-25T02:16:25.568Z,7.05
2022-08-25T02:17:28.111Z,6.80
2022-08-25T02:18:31.048Z,6.82
2022-08-25T02:19:33.043Z,7.43
2022-08-25T02:20:34.850Z,7.20
2022-08-25T02:21:36.966Z,7.20
2022-08-25T02:22:38.415Z,7.32
2022-08-25T02:23:42.042Z,7.07
2022-08-25T02:24:43.926Z,6.65
2022-08-25T02:25:45.407Z,7.18
2022-08-25T02:26:47.314Z,7.03
2022-08-25T02:27:48.783Z,8.10
2022-08-25T02:28:52.470Z,7.13
2022-08-25T02:29:54.400Z,7.30
2022-08-25T02:31:01.098Z,7.28
2022-08-25T02:32:03.658Z,7.40
2022-08-25T02:33:05.161Z,7.13
2022-08-25T02:34:09.180Z,7.18
2022-08-25T02:35:11.628Z,7.25
2022-08-25T02:36:13.639Z,7.18
2022-08-25T02:37:15.363Z,7.70
2022-08-25T02:38:16.862Z,7.05
2022-08-25T02:39:18.769Z,7.07
2022-08-25T02:40:21.462Z,7.38
2022-08-25T02:41:28.833Z,7.13
2022-08-25T02:42:33.786Z,6.97
2022-08-25T02:43:35.230Z,7.18
2022-08-25T02:44:36.672Z,7.75
2022-08-25T02:45:38.215Z,6.80
2022-08-25T02:46:40.501Z,7.30
2022-08-25T02:47:42.796Z,8.30
2022-08-25T02:48:45.205Z,6.93
2022-08-25T02:49:46.637Z,7.55
2022-08-25T02:50:51.641Z,6.68
2022-08-25T02:51:55.149Z,7.18
2022-08-25T02:52:56.986Z,7.55
2022-08-25T02:54:02.140Z,8.27
2022-08-25T02:55:07.048Z,7.55
2022-08-25T02:56:10.994Z,7.80
2022-08-25T02:57:12.700Z,7.20
2022-08-25T02:58:15.056Z,7.13
2022-08-25T02:59:18.116Z,7.78
2022-08-25T03:00:20.213Z,7.60
2022-08-25T03:01:22.282Z,7.07
2022-08-25T03:02:30.221Z,7.43
2022-08-25T03:03:34.246Z,7.43
2022-08-25T03:04:38.792Z,7.13
2022-08-25T03:05:41.296Z,7.55
2022-08-25T03:06:42.947Z,7.25
2022-08-25T03:07:44.448Z,7.80
2022-08-25T03:08:46.567Z,7.47
2022-08-25T03:09:48.855Z,7.10
2022-08-25T03:10:50.466Z,7.50
2022-08-25T03:11:53.649Z,6.88
2022-08-25T03:12:55.190Z,7.10
2022-08-25T03:13:56.843Z,6.90
2022-08-25T03:14:58.809Z,7.35
2022-08-25T03:16:02.913Z,6.80
2022-08-25T03:17:08.680Z,9.00
2022-08-25T03:18:11.806Z,7.60
2022-08-25T03:19:17.095Z,8.32
2022-08-25T03:20:18.957Z,8.13
2022-08-25T03:21:21.374Z,7.30
2022-08-25T03:22:23.313Z,7.03
2022-08-25T03:23:25.060Z,7.07
2022-08-25T03:24:27.317Z,7.40
2022-08-25T03:25:48.418Z,7.53
2022-08-25T03:26:58.534Z,7.57
2022-08-25T03:28:00.282Z,7.22
2022-08-25T03:29:05.569Z,7.70
2022-08-25T03:30:07.671Z,6.88
2022-08-25T03:31:10.258Z,7.32
2022-08-25T03:32:12.250Z,7.07
2022-08-25T03:33:13.989Z,7.05
2022-08-25T03:34:18.160Z,7.28
2022-08-25T03:35:20.124Z,7.82
2022-08-25T03:36:21.619Z,7.22
2022-08-25T03:37:23.621Z,7.00
2022-08-25T03:38:26.557Z,7.65
2022-08-25T03:39:29.084Z,7.85
2022-08-25T03:40:30.950Z,7.07
2022-08-25T03:41:33.762Z,7.07
2022-08-25T03:42:36.591Z,17.45
2022-08-25T03:43:40.030Z,14.88
2022-08-25T03:44:41.481Z,12.23
2022-08-25T03:45:44.905Z,9.85
2022-08-25T03:46:49.087Z,21.38
2022-08-25T03:47:52.539Z,26.90
2022-08-25T03:48:54.512Z,11.13
2022-08-25T03:49:56.841Z,7.60
2022-08-25T03:50:58.738Z,7.25
2022-08-25T03:52:00.158Z,7.40
2022-08-25T03:53:01.919Z,7.50
2022-08-25T03:54:04.707Z,6.75
2022-08-25T03:56:09.875Z,7.28
2022-08-25T03:57:11.943Z,6.88
2022-08-25T03:58:15.256Z,7.15
2022-08-25T03:59:17.820Z,6.93
2022-08-25T04:00:20.676Z,7.10
2022-08-25T04:02:24.489Z,7.20
2022-08-25T04:03:25.988Z,7.10
2022-08-25T04:04:27.850Z,7.40
2022-08-25T04:05:29.369Z,7.18
2022-08-25T04:06:30.926Z,7.68
2022-08-25T04:07:32.384Z,6.95
2022-08-25T04:08:33.856Z,6.82
2022-08-25T04:09:36.961Z,8.02
2022-08-25T04:10:38.778Z,6.70
2022-08-25T04:11:40.563Z,7.18
2022-08-25T04:12:44.226Z,7.38
2022-08-25T04:13:48.054Z,7.05
2022-08-25T04:14:50.403Z,7.10
2022-08-25T04:15:52.016Z,7.15
2022-08-25T04:16:53.602Z,7.50
2022-08-25T04:17:55.500Z,6.78
2022-08-25T04:18:59.532Z,6.95
2022-08-25T04:20:02.433Z,7.07
2022-08-25T04:22:10.747Z,7.30
2022-08-25T04:23:14.833Z,7.07
2022-08-25T04:24:17.192Z,6.72
2022-08-25T04:25:18.657Z,7.22
2022-08-25T04:26:23.603Z,7.18
2022-08-25T04:27:25.232Z,6.97
2022-08-25T04:28:26.798Z,7.18
2022-08-25T04:29:28.686Z,7.40
2022-08-25T04:30:30.227Z,6.63
2022-08-25T04:31:32.456Z,7.60
2022-08-25T04:32:36.528Z,7.03
2022-08-25T04:33:38.787Z,7.03
2022-08-25T04:34:40.449Z,7.10
2022-08-25T04:35:47.715Z,7.40
2022-08-25T04:36:52.551Z,6.95
2022-08-25T04:37:54.783Z,7.03
2022-08-25T04:38:56.651Z,7.57
2022-08-25T04:39:58.158Z,7.22
2022-08-25T04:41:04.914Z,7.35
2022-08-25T04:42:07.021Z,7.50
2022-08-25T04:43:08.473Z,7.38
2022-08-25T04:44:10.037Z,7.22
2022-08-25T04:45:11.546Z,7.43
2022-08-25T04:46:20.121Z,7.65
2022-08-25T04:47:22.704Z,7.28
2022-08-25T04:48:24.728Z,7.30
2022-08-25T04:49:27.115Z,7.18
2022-08-25T04:50:28.692Z,7.30
2022-08-25T04:51:36.884Z,7.60
2022-08-25T04:52:38.338Z,7.07
2022-08-25T04:53:41.346Z,7.00
2022-08-25T04:54:43.848Z,7.25
2022-08-25T04:55:48.153Z,7.30
2022-08-25T04:56:54.020Z,7.22
2022-08-25T04:57:56.602Z,7.68
2022-08-25T04:59:06.803Z,7.13
2022-08-25T05:00:09.108Z,6.55
2022-08-25T05:01:16.261Z,6.80
2022-08-25T05:02:17.876Z,7.25
2022-08-25T05:03:19.344Z,7.00
2022-08-25T05:04:28.163Z,7.53
2022-08-25T05:05:31.240Z,7.57
2022-08-25T05:06:36.094Z,7.47
2022-08-25T05:07:37.979Z,8.35
2022-08-25T05:08:39.736Z,7.75
2022-08-25T05:09:41.756Z,7.18
2022-08-25T05:10:44.499Z,8.32
2022-08-25T05:11:46.470Z,7.30
2022-08-25T05:12:48.490Z,7.00
2022-08-25T05:13:53.087Z,7.18
2022-08-25T05:14:54.758Z,7.03
2022-08-25T05:16:00.197Z,7.43
2022-08-25T05:17:02.022Z,7.72
2022-08-25T05:18:04.156Z,7.28
2022-08-25T05:19:06.167Z,7.28
2022-08-25T05:20:08.267Z,7.20
2022-08-25T05:21:19.684Z,6.75
2022-08-25T05:22:21.159Z,6.88
2022-08-25T05:23:26.190Z,7.00
2022-08-25T05:24:28.137Z,7.65
2022-08-25T05:25:30.068Z,7.80
2022-08-25T05:26:34.701Z,7.13
2022-08-25T05:27:36.653Z,6.93
2022-08-25T05:28:41.698Z,7.32
2022-08-25T05:29:43.147Z,7.70
2022-08-25T05:30:45.197Z,6.72
2022-08-25T05:31:50.427Z,7.75
2022-08-25T05:32:52.370Z,7.35
2022-08-25T05:33:55.669Z,7.32
2022-08-25T05:34:57.626Z,7.03
2022-08-25T05:35:59.573Z,7.05
2022-08-25T05:37:03.333Z,6.70
2022-08-25T05:38:06.193Z,7.63
2022-08-25T05:39:07.809Z,7.80
2022-08-25T05:40:10.714Z,7.07
2022-08-25T05:41:18.778Z,7.20
2022-08-25T05:42:20.230Z,6.97
2022-08-25T05:43:21.699Z,7.45
2022-08-25T05:44:23.214Z,7.25
2022-08-25T05:45:25.003Z,7.20
2022-08-25T05:46:27.107Z,7.68
2022-08-25T05:47:34.265Z,7.05
2022-08-25T05:48:36.689Z,7.35
2022-08-25T05:49:38.159Z,7.43
2022-08-25T05:50:39.682Z,7.50
2022-08-25T05:51:41.662Z,7.22
2022-08-25T05:52:44.256Z,7.68
2022-08-25T05:53:48.344Z,7.85
2022-08-25T05:54:49.815Z,7.13
2022-08-25T05:55:53.132Z,6.95
2022-08-25T05:56:54.616Z,8.25
2022-08-25T05:57:56.503Z,7.03
2022-08-25T05:58:57.966Z,7.35
2022-08-25T05:59:59.483Z,7.35
2022-08-25T06:01:21.379Z,6.97
2022-08-25T06:02:41.333Z,6.82
2022-08-25T06:03:44.850Z,7.63
2022-08-25T06:04:46.549Z,8.18
2022-08-25T06:05:48.315Z,7.22
2022-08-25T06:06:53.396Z,7.90
2022-08-25T06:07:55.576Z,7.05
2022-08-25T06:08:57.387Z,8.73
2022-08-25T06:09:58.867Z,7.13
2022-08-25T06:11:00.526Z,7.75
2022-08-25T06:12:02.261Z,7.88
2022-08-25T06:13:04.254Z,8.50
2022-08-25T06:14:10.173Z,8.30
2022-08-25T06:15:13.803Z,7.55
2022-08-25T06:16:15.286Z,8.02
2022-08-25T06:17:17.427Z,7.25
2022-08-25T06:18:18.880Z,7.50
2022-08-25T06:19:21.521Z,7.53
2022-08-25T06:20:26.768Z,7.55
2022-08-25T06:21:29.032Z,7.47
2022-08-25T06:22:30.483Z,7.82
2022-08-25T06:23:31.932Z,8.07
2022-08-25T06:24:34.155Z,7.82
2022-08-25T06:25:35.660Z,7.80
2022-08-25T06:26:37.768Z,7.78
2022-08-25T06:27:39.379Z,7.85
2022-08-25T06:28:41.292Z,7.90
2022-08-25T06:29:43.299Z,7.40
2022-08-25T06:30:44.965Z,7.47
2022-08-25T06:31:46.724Z,7.72
2022-08-25T06:32:49.186Z,7.65
2022-08-25T06:33:50.865Z,7.40
2022-08-25T06:34:52.780Z,7.60
2022-08-25T06:35:59.475Z,7.53
2022-08-25T06:37:01.180Z,7.90
2022-08-25T06:38:02.794Z,8.32
2022-08-25T06:39:04.668Z,8.93
2022-08-25T06:40:07.850Z,8.40
2022-08-25T06:41:10.812Z,8.95
2022-08-25T06:42:12.266Z,8.88
2022-08-25T06:43:14.121Z,8.82
2022-08-25T06:44:15.769Z,8.23
2022-08-25T06:45:18.350Z,7.97
2022-08-25T06:46:34.718Z,8.93
2022-08-25T06:47:38.318Z,8.70
2022-08-25T06:48:40.944Z,8.43
2022-08-25T06:49:43.756Z,8.70
2022-08-25T06:51:47.128Z,8.45
2022-08-25T06:52:48.593Z,8.35
2022-08-25T06:53:51.313Z,8.85
2022-08-25T06:54:53.269Z,8.52
2022-08-25T06:55:58.295Z,8.55
2022-08-25T06:56:59.754Z,8.00
2022-08-25T06:58:03.257Z,8.68
2022-08-25T06:59:07.922Z,9.25
2022-08-25T07:00:12.408Z,8.93
2022-08-25T07:01:23.640Z,9.15
2022-08-25T07:02:27.940Z,8.32
2022-08-25T07:03:30.820Z,9.23
2022-08-25T07:04:36.771Z,8.82
2022-08-25T07:05:43.732Z,8.63
2022-08-25T07:06:45.831Z,9.77
2022-08-25T07:07:47.931Z,9.48
2022-08-25T07:08:49.689Z,8.93
2022-08-25T07:09:51.558Z,9.68
2022-08-25T07:10:53.120Z,9.23
2022-08-25T07:11:54.705Z,8.77
2022-08-25T07:12:56.632Z,9.80
2022-08-25T07:13:58.258Z,9.63
2022-08-25T07:15:17.120Z,9.20
2022-08-25T07:16:21.479Z,8.68
2022-08-25T07:17:23.791Z,9.35
2022-08-25T07:18:27.086Z,9.77
2022-08-25T07:19:28.611Z,9.57
2022-08-25T07:20:31.438Z,9.10
2022-08-25T07:22:37.876Z,8.85
2022-08-25T07:23:41.052Z,8.95
2022-08-25T07:24:42.581Z,9.30
2022-08-25T07:25:44.542Z,9.13
2022-08-25T07:26:46.791Z,9.02
2022-08-25T07:27:48.374Z,9.25
2022-08-25T07:28:50.780Z,10.05
2022-08-25T07:29:54.004Z,9.43
2022-08-25T07:31:01.296Z,9.07
2022-08-25T07:32:04.507Z,9.70
2022-08-25T07:33:06.913Z,8.95
2022-08-25T07:34:28.459Z,9.18
2022-08-25T07:35:37.386Z,8.43
2022-08-25T07:36:39.330Z,9.23
2022-08-25T07:37:50.815Z,8.52
2022-08-25T07:38:53.419Z,8.90
2022-08-25T07:39:57.149Z,8.38
2022-08-25T07:41:05.025Z,8.30
2022-08-25T07:42:11.973Z,9.05
2022-08-25T07:43:13.738Z,9.00
2022-08-25T07:44:15.291Z,9.00
2022-08-25T07:45:21.008Z,9.05
2022-08-25T07:46:23.142Z,8.63
2022-08-25T07:47:24.724Z,8.73
2022-08-25T07:48:26.655Z,9.27
2022-08-25T07:49:34.974Z,8.63
2022-08-25T07:50:40.494Z,8.90
2022-08-25T07:51:44.210Z,8.52
2022-08-25T07:53:03.586Z,8.45
2022-08-25T07:54:06.025Z,8.75
2022-08-25T07:55:08.357Z,8.50
2022-08-25T07:56:15.975Z,8.75
2022-08-25T07:57:17.466Z,8.02
2022-08-25T07:58:18.907Z,7.70
2022-08-25T07:59:20.378Z,8.40
2022-08-25T08:00:22.016Z,8.88
2022-08-25T08:01:26.202Z,8.25
2022-08-25T08:02:27.813Z,8.23
2022-08-25T08:03:45.192Z,7.93
2022-08-25T08:04:53.576Z,8.07
2022-08-25T08:05:56.524Z,8.00
2022-08-25T08:06:58.374Z,8.32
2022-08-25T08:08:02.400Z,7.93
2022-08-25T08:09:04.402Z,8.00
2022-08-25T08:10:37.073Z,8.55
2022-08-25T08:11:35.136Z,7.75
2022-08-25T08:12:38.550Z,7.88
2022-08-25T08:13:41.518Z,8.52
2022-08-25T08:14:45.177Z,7.65
2022-08-25T08:15:47.845Z,7.50
2022-08-25T08:16:50.042Z,7.38
2022-08-25T08:17:51.567Z,7.88
2022-08-25T08:18:53.630Z,7.47
2022-08-25T08:19:55.122Z,7.90
2022-08-25T08:20:56.648Z,7.75
2022-08-25T08:21:58.622Z,8.27
2022-08-25T08:23:00.237Z,7.68
2022-08-25T08:24:05.024Z,7.47
2022-08-25T08:25:18.718Z,7.75
2022-08-25T08:26:31.665Z,7.82
2022-08-25T08:27:39.532Z,7.15
2022-08-25T08:28:41.098Z,7.43
2022-08-25T08:29:42.580Z,7.22
2022-08-25T08:30:52.754Z,6.93
2022-08-25T08:31:55.291Z,6.97
2022-08-25T08:33:09.708Z,7.68
2022-08-25T08:35:15.446Z,8.32
2022-08-25T08:37:22.817Z,10.35
2022-08-25T08:38:27.205Z,9.07
2022-08-25T08:39:30.079Z,7.70
2022-08-25T08:42:11.681Z,8.18
2022-08-25T08:43:19.153Z,7.78
2022-08-25T08:44:28.135Z,7.72
2022-08-25T08:45:53.902Z,6.75
2022-08-25T08:47:22.487Z,7.05
2022-08-25T08:48:34.792Z,7.40
2022-08-25T08:50:04.082Z,7.38
2022-08-25T08:51:24.584Z,7.15
2022-08-25T08:52:49.904Z,7.18
2022-08-25T08:54:25.082Z,7.53
2022-08-25T08:55:32.717Z,6.90
2022-08-25T08:56:45.216Z,7.20
2022-08-25T08:57:52.251Z,6.47
2022-08-25T08:59:14.215Z,6.78
2022-08-25T09:00:15.902Z,6.78
2022-08-25T09:01:25.548Z,6.55
2022-08-25T09:02:38.559Z,6.65
2022-08-25T09:03:59.956Z,6.40
2022-08-25T09:05:06.935Z,7.18
2022-08-25T09:06:24.052Z,6.72
2022-08-25T09:07:55.092Z,7.30
2022-08-25T09:09:00.010Z,6.97
2022-08-25T09:10:04.894Z,6.45
2022-08-25T09:11:18.935Z,6.80
2022-08-25T09:12:47.464Z,6.78
2022-08-25T09:14:05.582Z,6.72
2022-08-25T09:15:13.847Z,6.53
2022-08-25T09:16:52.524Z,7.18
2022-08-25T09:18:31.150Z,6.78
2022-08-25T09:19:54.562Z,6.90
2022-08-25T09:20:56.028Z,6.13
2022-08-25T09:22:35.024Z,6.82
2022-08-25T09:23:55.592Z,7.00
2022-08-25T09:25:48.817Z,6.60
2022-08-25T09:27:17.687Z,6.50
2022-08-25T09:28:32.831Z,7.20
2022-08-25T09:30:10.147Z,6.30
2022-08-25T09:31:31.811Z,6.53
2022-08-25T09:32:42.526Z,7.03
2022-08-25T09:33:55.517Z,6.40
2022-08-25T09:34:57.684Z,6.18
2022-08-25T09:35:59.389Z,6.32
2022-08-25T09:37:06.312Z,6.72
2022-08-25T09:38:17.953Z,6.65
2022-08-25T09:39:20.614Z,6.72
2022-08-25T09:40:25.026Z,6.70
2022-08-25T09:41:56.004Z,6.57
2022-08-25T09:42:59.793Z,6.40
2022-08-25T09:44:01.412Z,6.60
2022-08-25T09:45:03.946Z,6.70
2022-08-25T09:46:05.409Z,6.70
2022-08-25T09:47:23.405Z,7.05
2022-08-25T09:48:41.036Z,6.65
2022-08-25T09:49:47.701Z,7.20
2022-08-25T09:50:52.607Z,6.95
2022-08-25T09:51:54.099Z,7.00
2022-08-25T09:52:55.596Z,7.65
2022-08-25T09:54:01.226Z,6.72
2022-08-25T09:55:13.197Z,6.25
2022-08-25T09:56:21.427Z,6.20
2022-08-25T09:57:57.067Z,6.53
2022-08-25T09:59:36.119Z,6.10
2022-08-25T10:00:38.517Z,6.45
2022-08-25T10:01:53.415Z,6.38
2022-08-25T10:03:06.417Z,5.82
2022-08-25T10:04:13.961Z,5.95
2022-08-25T10:05:26.481Z,6.75
2022-08-25T10:06:33.255Z,6.63
2022-08-25T10:07:48.076Z,6.55
2022-08-25T10:08:58.644Z,7.22
2022-08-25T10:10:16.093Z,6.38
2022-08-25T10:11:38.312Z,6.35
2022-08-25T10:12:43.058Z,6.22
2022-08-25T10:13:51.838Z,6.72
2022-08-25T10:14:54.545Z,6.53
2022-08-25T10:16:20.066Z,6.82
2022-08-25T10:17:33.535Z,7.00
2022-08-25T10:18:35.184Z,7.47
2022-08-25T10:19:36.671Z,6.50
2022-08-25T10:20:38.429Z,6.78
2022-08-25T10:22:04.243Z,6.60
2022-08-25T10:23:13.994Z,6.78
2022-08-25T10:24:15.569Z,6.68
2022-08-25T10:25:26.904Z,6.93
2022-08-25T10:27:00.746Z,6.53
2022-08-25T10:28:17.395Z,6.57
2022-08-25T10:29:28.050Z,13.95
2022-08-25T10:30:57.476Z,6.90
2022-08-25T10:32:19.260Z,7.68
2022-08-25T10:33:31.701Z,6.32
2022-08-25T10:34:44.772Z,6.85
2022-08-25T10:35:54.815Z,6.22
2022-08-25T10:37:18.724Z,6.22
2022-08-25T10:38:54.188Z,6.60
2022-08-25T10:40:16.493Z,6.32
2022-08-25T10:41:28.903Z,6.40
2022-08-25T10:42:43.568Z,6.28
2022-08-25T10:44:33.300Z,6.90
2022-08-25T10:45:43.476Z,6.43
2022-08-25T10:46:55.841Z,6.45
2022-08-25T10:48:05.626Z,6.38
2022-08-25T10:49:19.240Z,6.40
2022-08-25T10:50:33.535Z,6.55
2022-08-25T10:52:21.736Z,6.28
2022-08-25T10:53:26.862Z,6.72
2022-08-25T10:54:40.851Z,7.30
2022-08-25T10:55:45.207Z,6.50
2022-08-25T10:57:01.463Z,7.03
2022-08-25T10:58:18.325Z,6.15
2022-08-25T10:59:48.868Z,6.50
2022-08-25T11:01:08.655Z,6.97
2022-08-25T11:02:48.456Z,7.22
2022-08-25T11:03:58.910Z,8.48
2022-08-25T11:05:12.691Z,13.00
2022-08-25T11:06:54.643Z,9.68
2022-08-25T11:08:19.265Z,8.25
2022-08-25T11:09:25.849Z,6.72
2022-08-25T11:10:41.231Z,7.07
2022-08-25T11:11:52.406Z,6.53
2022-08-25T11:13:00.764Z,6.82
2022-08-25T11:14:11.247Z,6.75
2022-08-25T11:15:20.392Z,7.22
2022-08-25T11:17:46.053Z,6.80
2022-08-25T11:19:05.595Z,6.80
2022-08-25T11:20:19.839Z,6.57
2022-08-25T11:21:53.534Z,6.40
2022-08-25T11:23:19.750Z,7.13
2022-08-25T11:24:36.109Z,6.32
2022-08-25T11:25:49.691Z,6.72
2022-08-25T11:26:56.096Z,6.03
2022-08-25T11:28:03.712Z,6.43
2022-08-25T11:29:21.870Z,6.65
2022-08-25T11:30:24.106Z,6.45
2022-08-25T11:31:28.350Z,6.90
2022-08-25T11:32:33.388Z,6.65
2022-08-25T11:33:35.427Z,6.78
2022-08-25T11:34:43.595Z,6.43
2022-08-25T11:35:59.533Z,6.75
2022-08-25T11:37:29.749Z,6.30
2022-08-25T11:38:38.613Z,6.18
2022-08-25T11:40:05.755Z,6.80
2022-08-25T11:41:29.373Z,6.75
2022-08-25T11:42:59.134Z,6.78
2022-08-25T11:44:32.472Z,6.45
2022-08-25T11:45:46.518Z,6.43
2022-08-25T11:47:26.539Z,6.65
2022-08-25T11:48:43.168Z,6.60
2022-08-25T11:49:52.733Z,6.45
2022-08-25T11:50:56.807Z,6.43
2022-08-25T11:52:02.970Z,7.03
2022-08-25T11:53:26.712Z,6.68
2022-08-25T11:54:36.628Z,7.05
2022-08-25T11:55:38.030Z,6.20
2022-08-25T11:56:42.188Z,6.80
2022-08-25T11:58:51.784Z,6.55
2022-08-25T11:59:53.239Z,6.93
2022-08-25T12:00:58.802Z,6.50
2022-08-25T12:02:01.606Z,7.10
2022-08-25T12:03:26.420Z,7.07
2022-08-25T12:04:44.164Z,8.07
2022-08-25T12:05:46.994Z,6.57
2022-08-25T12:07:07.210Z,7.10
2022-08-25T12:08:27.397Z,6.28
2022-08-25T12:09:28.910Z,6.93
2022-08-25T12:10:53.531Z,6.47
2022-08-25T12:11:58.483Z,6.53
2022-08-25T12:13:04.830Z,6.80
2022-08-25T12:14:21.568Z,6.43
2022-08-25T12:15:25.479Z,6.70
2022-08-25T12:16:35.999Z,6.82
2022-08-25T12:17:39.782Z,6.57
2022-08-25T12:18:46.048Z,6.03
2022-08-25T12:19:56.790Z,5.95
2022-08-25T12:20:58.210Z,6.45
2022-08-25T12:22:03.631Z,5.65
2022-08-25T12:23:05.776Z,6.63
2022-08-25T12:24:13.068Z,6.18
2022-08-25T12:25:39.124Z,5.93
2022-08-25T12:26:52.608Z,5.95
2022-08-25T12:28:15.415Z,5.55
2022-08-25T12:29:30.416Z,5.70
2022-08-25T12:32:04.881Z,5.57
2022-08-25T12:33:34.566Z,5.60
2022-08-25T12:34:48.233Z,5.53
2022-08-25T12:36:02.679Z,5.68
2022-08-25T12:37:18.223Z,5.50
2022-08-25T12:38:31.800Z,5.32
2022-08-25T12:39:51.853Z,5.80
2022-08-25T12:41:02.988Z,6.25
2022-08-25T12:42:12.187Z,5.32
2022-08-25T12:43:26.885Z,5.18
2022-08-25T12:45:51.951Z,4.40
2022-08-25T12:47:13.602Z,4.57
2022-08-25T12:48:27.571Z,4.50
2022-08-25T12:49:29.505Z,4.80
2022-08-25T12:50:36.551Z,4.90
2022-08-25T12:51:48.540Z,4.75
2022-08-25T12:52:50.956Z,5.03
2022-08-25T12:54:44.363Z,5.60
2022-08-25T12:55:57.607Z,6.20
2022-08-25T12:57:03.112Z,6.00
2022-08-25T12:58:06.756Z,6.28
2022-08-25T12:59:18.212Z,6.10
2022-08-25T13:01:55.137Z,6.00
2022-08-25T13:03:49.584Z,6.50
2022-08-25T13:05:06.644Z,5.65
2022-08-25T13:06:08.267Z,6.47
2022-08-25T13:07:29.303Z,5.78
2022-08-25T13:08:51.852Z,5.63
2022-08-25T13:10:20.984Z,5.95
2022-08-25T13:11:38.736Z,5.70
2022-08-25T13:12:55.444Z,6.00
2022-08-25T13:14:33.317Z,6.18
2022-08-25T13:15:41.281Z,6.32
2022-08-25T13:16:57.681Z,5.90
2022-08-25T13:18:20.128Z,5.70
2022-08-25T13:19:22.833Z,6.38
2022-08-25T13:21:37.216Z,5.90
2022-08-25T13:22:39.262Z,5.32
2022-08-25T13:23:43.904Z,5.85
2022-08-25T13:24:51.018Z,5.38
2022-08-25T13:25:53.904Z,5.95
2022-08-25T13:27:01.636Z,6.30
2022-08-25T13:28:06.647Z,6.80
2022-08-25T13:29:17.896Z,6.32
2022-08-25T13:30:30.193Z,8.05
2022-08-25T13:31:31.748Z,5.53
2022-08-25T13:32:36.559Z,6.80
2022-08-25T13:33:38.359Z,5.45
2022-08-25T13:34:43.165Z,5.53
2022-08-25T13:36:12.661Z,5.55
2022-08-25T13:37:29.767Z,5.65
2022-08-25T13:38:31.984Z,5.45
2022-08-25T13:39:54.940Z,5.80
2022-08-25T13:41:08.210Z,5.13
2022-08-25T13:42:16.894Z,5.82
2022-08-25T13:43:27.479Z,5.43
2022-08-25T13:44:32.018Z,5.40
2022-08-25T13:45:41.053Z,5.03
2022-08-25T13:46:44.026Z,5.90
2022-08-25T13:47:46.843Z,5.28
2022-08-25T13:48:50.076Z,5.43
2022-08-25T13:49:51.936Z,6.03
2022-08-25T13:51:09.073Z,5.75
2022-08-25T13:52:29.260Z,5.72
2022-08-25T13:53:31.726Z,5.43
2022-08-25T13:54:41.156Z,5.82
2022-08-25T13:55:55.212Z,5.43
2022-08-25T13:57:15.517Z,5.35
2022-08-25T13:58:38.948Z,5.20
2022-08-25T13:59:51.227Z,5.70
2022-08-25T14:01:48.413Z,5.90
2022-08-25T14:02:53.116Z,6.10
2022-08-25T14:04:17.395Z,5.55
2022-08-25T14:05:38.054Z,6.43
2022-08-25T14:06:39.567Z,5.43
2022-08-25T14:07:46.499Z,5.35
2022-08-25T14:10:30.311Z,5.35
2022-08-25T14:11:54.491Z,5.05
2022-08-25T14:13:10.160Z,5.22
2022-08-25T14:14:33.708Z,5.20
2022-08-25T14:15:35.456Z,6.38
2022-08-25T14:16:47.298Z,5.57
2022-08-25T14:18:19.834Z,5.45
2022-08-25T14:19:23.919Z,5.25
2022-08-25T14:20:29.394Z,5.68
2022-08-25T14:21:33.547Z,5.68
2022-08-25T14:22:37.222Z,5.30
2022-08-25T14:23:43.686Z,5.18
2022-08-25T14:24:45.214Z,5.72
2022-08-25T14:25:49.491Z,5.25
2022-08-25T14:26:54.636Z,5.13
2022-08-25T14:28:16.329Z,5.90
2022-08-25T14:29:17.943Z,5.13
2022-08-25T14:30:28.904Z,5.10
2022-08-25T14:31:35.801Z,5.07
2022-08-25T14:32:37.407Z,4.90
2022-08-25T14:33:50.102Z,4.75
2022-08-25T14:34:52.250Z,4.80
2022-08-25T14:35:58.168Z,4.80
2022-08-25T14:37:02.817Z,4.43
2022-08-25T14:38:10.581Z,4.63
2022-08-25T14:39:12.564Z,5.68
2022-08-25T14:40:16.172Z,5.30
2022-08-25T14:41:20.062Z,4.88
2022-08-25T14:42:22.664Z,4.88
2022-08-25T14:43:32.059Z,5.80
2022-08-25T14:44:33.872Z,5.18
2022-08-25T14:45:40.800Z,5.20
2022-08-25T14:46:46.477Z,5.07
2022-08-25T14:47:49.743Z,5.25
2022-08-25T14:48:56.735Z,5.00
2022-08-25T14:49:59.064Z,4.90
2022-08-25T14:51:01.828Z,5.20
2022-08-25T14:52:10.065Z,5.28
2022-08-25T14:53:14.397Z,4.65
2022-08-25T14:54:18.594Z,4.90
2022-08-25T14:55:31.615Z,4.70
2022-08-25T14:56:34.619Z,4.93
2022-08-25T14:58:51.289Z,4.40
2022-08-25T14:59:55.957Z,4.82
2022-08-25T15:00:58.004Z,4.53
2022-08-25T15:02:00.169Z,5.00
2022-08-25T15:03:03.875Z,4.80
2022-08-25T15:04:13.082Z,4.50
2022-08-25T15:05:24.688Z,4.53
2022-08-25T15:06:27.923Z,4.85
2022-08-25T15:07:51.579Z,4.57
2022-08-25T15:09:11.242Z,4.85
2022-08-25T15:10:13.595Z,4.72
2022-08-25T15:11:15.636Z,5.72
2022-08-25T15:12:37.462Z,5.10
2022-08-25T15:13:41.770Z,5.05
2022-08-25T15:14:43.821Z,7.97
2022-08-25T15:15:52.371Z,5.70
2022-08-25T15:16:57.186Z,4.75